Terminal Aerodrome Forecast
Issued by NWS

Home | Current Version | Previous Version | Text Only | Print | Product List | Glossary On
Versions: 1 2 3 4 5 6 7 8 9 10 11 12 13 14 15
000
FTUS43 KMQT 240520
TAFSAW
TAF
KSAW 240520Z 2406/2506 06003KT P6SM OVC050
     FM241000 08005KT P6SM BKN090
     FM241500 14010KT P6SM BKN120
     FM241700 16015G22KT P6SM BKN150
     FM250100 16010KT P6SM BKN150=

USA.gov is the U.S. government's official web portal to all federal, state and local government web resources and services.